Time;durP1;ratioP1;P1;durP2;ratioP2;P2;SDS_P1;SDS_P2;PMS_P1;PMS_P2;Temp;Humidity;BMP_temperature;BMP_pressure;BME280_temperature;BME280_humidity;BME280_pressure;Samples;Min_cycle;Max_cycle;Signal;HPM_P1;HPM_P2
2022/11/03 00:02:15;;;;;;;20.02;4.65;;;;;;;;;;4995271;28;20030;-49
2022/11/03 00:04:40;;;;;;;7.53;4.75;;;;;;;;;;4995462;28;20376;-46
2022/11/03 00:07:05;;;;;;;7.15;4.20;;;;;;;;;;4996518;28;20189;-44
2022/11/03 00:09:31;;;;;;;8.13;4.15;;;;;;;;;;4997485;28;20046;-45
2022/11/03 00:11:56;;;;;;;10.55;3.90;;;;;;;;;;4999864;28;20026;-46
2022/11/03 00:14:22;;;;;;;6.30;3.92;;;;;;;;;;4991979;28;20030;-45
2022/11/03 00:16:48;;;;;;;6.80;3.95;;;;;;;;;;4995164;28;20572;-45
2022/11/03 00:19:15;;;;;;;8.20;4.20;;;;;;;;;;4994586;28;22546;-44
2022/11/03 00:21:41;;;;;;;6.82;3.97;;;;;;;;;;4996617;28;20054;-44
2022/11/03 00:24:07;;;;;;;11.55;4.18;;;;;;;;;;4994959;28;20473;-45
2022/11/03 00:26:34;;;;;;;7.40;3.80;;;;;;;;;;5000595;28;20048;-44
2022/11/03 00:29:11;;;;;;;5.47;3.78;;;;;;;;;;4996308;28;20046;-44
2022/11/03 00:31:38;;;;;;;12.95;4.45;;;;;;;;;;4995877;28;20405;-44
2022/11/03 00:34:04;;;;;;;12.05;5.90;;;;;;;;;;4994313;28;20042;-44
2022/11/03 00:36:35;;;;;;;8.93;4.05;;;;;;;;;;4990283;28;20034;-45
2022/11/03 00:39:01;;;;;;;8.35;4.07;;;;;;;;;;4993683;28;20030;-45
2022/11/03 00:41:27;;;;;;;9.15;3.92;;;;;;;;;;5000392;28;20030;-44
2022/11/03 00:43:53;;;;;;;7.13;3.88;;;;;;;;;;4989912;28;20038;-45
2022/11/03 00:46:20;;;;;;;8.13;3.60;;;;;;;;;;4995105;28;20443;-45
2022/11/03 00:48:46;;;;;;;11.43;3.60;;;;;;;;;;4995398;28;20517;-44
2022/11/03 00:51:23;;;;;;;10.40;4.20;;;;;;;;;;4992702;28;20030;-44
2022/11/03 00:53:59;;;;;;;8.10;3.53;;;;;;;;;;4995484;28;20057;-46
2022/11/03 00:56:35;;;;;;;6.72;3.22;;;;;;;;;;4992603;28;20026;-44
2022/11/03 00:59:02;;;;;;;12.13;3.65;;;;;;;;;;4994136;28;20037;-46
2022/11/03 01:01:39;;;;;;;8.20;3.60;;;;;;;;;;4993633;28;20034;-44
2022/11/03 01:06:53;;;;;;;7.35;4.35;;;;;;;;;;4995776;28;20037;-45
2022/11/03 01:09:27;;;;;;;8.05;3.40;;;;;;;;;;4994073;28;20047;-45
2022/11/03 01:12:09;;;;;;;8.85;3.17;;;;;;;;;;4995748;28;20037;-46
2022/11/03 01:14:53;;;;;;;4.32;3.08;;;;;;;;;;4991106;28;20045;-44
2022/11/03 01:17:24;;;;;;;7.07;3.17;;;;;;;;;;4997138;28;20029;-45
2022/11/03 01:19:50;;;;;;;9.48;3.40;;;;;;;;;;4992644;28;20073;-46
2022/11/03 01:22:17;;;;;;;8.18;3.50;;;;;;;;;;4997817;28;20058;-45
2022/11/03 01:24:43;;;;;;;6.10;3.55;;;;;;;;;;4990156;28;20053;-44
2022/11/03 01:27:12;;;;;;;9.48;3.90;;;;;;;;;;4999946;28;20029;-44
2022/11/03 01:29:38;;;;;;;9.85;4.00;;;;;;;;;;4993008;28;20042;-45
2022/11/03 01:32:04;;;;;;;8.30;4.28;;;;;;;;;;4994137;28;20437;-45
2022/11/03 01:34:29;;;;;;;11.32;4.10;;;;;;;;;;4996310;28;20065;-45
2022/11/03 01:36:55;;;;;;;10.40;4.05;;;;;;;;;;4995147;28;20030;-45
2022/11/03 01:39:20;;;;;;;13.43;4.72;;;;;;;;;;4992239;28;20509;-47
2022/11/03 01:41:49;;;;;;;11.70;4.70;;;;;;;;;;4990675;28;20058;-45
2022/11/03 01:44:14;;;;;;;7.35;3.75;;;;;;;;;;4992557;28;20042;-50
2022/11/03 01:46:50;;;;;;;9.95;4.18;;;;;;;;;;4988545;28;20030;-47
2022/11/03 01:49:18;;;;;;;12.13;3.70;;;;;;;;;;4991600;28;20045;-46
2022/11/03 01:51:48;;;;;;;7.57;4.30;;;;;;;;;;4996505;28;20026;-45
2022/11/03 01:54:18;;;;;;;7.05;3.97;;;;;;;;;;4991266;28;20046;-45
2022/11/03 01:56:45;;;;;;;6.53;3.53;;;;;;;;;;4993305;28;20022;-45
2022/11/03 01:59:13;;;;;;;10.50;3.35;;;;;;;;;;4994607;28;20042;-48
2022/11/03 02:01:39;;;;;;;8.50;3.70;;;;;;;;;;4991590;28;20052;-48
2022/11/03 02:04:12;;;;;;;8.48;3.38;;;;;;;;;;4993343;28;20059;-45
2022/11/03 02:06:37;;;;;;;7.15;3.20;;;;;;;;;;4999119;28;20074;-47
2022/11/03 02:09:05;;;;;;;10.30;3.67;;;;;;;;;;4988216;28;20063;-46
2022/11/03 02:14:31;;;;;;;9.80;3.55;;;;;;;;;;4954836;28;20042;-46
2022/11/03 02:17:01;;;;;;;15.00;3.60;;;;;;;;;;4950005;28;20332;-47
2022/11/03 02:19:40;;;;;;;10.43;3.35;;;;;;;;;;4945999;28;20508;-49
2022/11/03 02:22:21;;;;;;;4.22;3.17;;;;;;;;;;4953751;28;20054;-45
2022/11/03 02:24:59;;;;;;;7.78;3.25;;;;;;;;;;4950308;28;20077;-46
2022/11/03 02:27:24;;;;;;;5.95;3.10;;;;;;;;;;4953352;28;20218;-47
2022/11/03 02:29:50;;;;;;;8.88;2.88;;;;;;;;;;4950359;28;20129;-46
2022/11/03 02:32:25;;;;;;;9.38;2.95;;;;;;;;;;4956864;28;20038;-46
2022/11/03 02:35:02;;;;;;;6.78;3.38;;;;;;;;;;4952344;28;20043;-45
2022/11/03 02:37:35;;;;;;;4.72;2.78;;;;;;;;;;4951507;28;20031;-47
2022/11/03 02:40:17;;;;;;;15.50;3.80;;;;;;;;;;4949536;28;20126;-48
2022/11/03 02:42:45;;;;;;;;;;;;;;;;;;4933720;28;20393;-49
2022/11/03 02:45:16;;;;;;;10.90;3.15;;;;;;;;;;4951972;28;19926;-45
2022/11/03 02:47:42;;;;;;;4.68;3.10;;;;;;;;;;4954376;28;20030;-49
2022/11/03 02:50:09;;;;;;;7.18;3.28;;;;;;;;;;4970408;28;20491;-45
2022/11/03 02:52:41;;;;;;;10.35;2.67;;;;;;;;;;4993157;28;20026;-50
2022/11/03 02:55:09;;;;;;;;;;;;;;;;;;4993689;28;20386;-46
2022/11/03 02:57:42;;;;;;;9.10;3.20;;;;;;;;;;4997669;28;20437;-46
2022/11/03 03:00:08;;;;;;;5.53;2.85;;;;;;;;;;4993116;28;20077;-46
2022/11/03 03:02:49;;;;;;;8.25;3.00;;;;;;;;;;4994028;28;20038;-45
2022/11/03 03:05:17;;;;;;;8.00;2.60;;;;;;;;;;4990789;28;20021;-46
2022/11/03 03:07:51;;;;;;;5.97;2.90;;;;;;;;;;4991961;28;20089;-48
2022/11/03 03:10:22;;;;;;;12.10;2.88;;;;;;;;;;4995529;28;20045;-49
2022/11/03 03:12:56;;;;;;;6.43;2.67;;;;;;;;;;4994703;28;20038;-45
2022/11/03 03:15:32;;;;;;;7.70;2.53;;;;;;;;;;4998399;28;20475;-45
2022/11/03 03:18:18;;;;;;;9.70;2.95;;;;;;;;;;5001223;28;20042;-48
2022/11/03 03:21:13;;;;;;;10.70;3.28;;;;;;;;;;4995168;28;20046;-48
2022/11/03 03:23:48;;;;;;;4.90;2.75;;;;;;;;;;4988386;28;20061;-45
2022/11/03 03:26:27;;;;;;;6.28;2.63;;;;;;;;;;5002061;28;20163;-46
2022/11/03 03:28:57;;;;;;;6.53;2.70;;;;;;;;;;4996959;28;20038;-48
2022/11/03 03:31:24;;;;;;;5.43;2.67;;;;;;;;;;4992960;28;20454;-49
2022/11/03 03:33:52;;;;;;;4.28;2.70;;;;;;;;;;4997470;28;20565;-47
2022/11/03 03:36:20;;;;;;;6.15;2.35;;;;;;;;;;4994428;28;20041;-47
2022/11/03 03:38:49;;;;;;;4.85;2.30;;;;;;;;;;4993726;28;20042;-47
2022/11/03 03:41:20;;;;;;;8.40;2.20;;;;;;;;;;4996282;28;20025;-49
2022/11/03 03:43:48;;;;;;;6.43;2.40;;;;;;;;;;4999625;28;20034;-49
2022/11/03 03:46:15;;;;;;;2.67;1.92;;;;;;;;;;4997535;28;20066;-49
2022/11/03 03:48:41;;;;;;;6.30;2.40;;;;;;;;;;4998254;28;20057;-46
2022/11/03 03:51:07;;;;;;;6.20;2.35;;;;;;;;;;4996372;28;20387;-50
2022/11/03 03:53:33;;;;;;;4.63;2.20;;;;;;;;;;4991412;28;20054;-52
2022/11/03 03:55:58;;;;;;;5.60;2.30;;;;;;;;;;4996205;28;20475;-50
2022/11/03 03:58:23;;;;;;;5.88;2.20;;;;;;;;;;4997091;28;20081;-48
2022/11/03 04:00:49;;;;;;;4.68;2.50;;;;;;;;;;4996244;28;20026;-48
2022/11/03 04:03:17;;;;;;;4.93;2.00;;;;;;;;;;5000475;28;20042;-51
2022/11/03 04:05:44;;;;;;;7.10;2.13;;;;;;;;;;4991324;28;20022;-50
2022/11/03 04:08:10;;;;;;;4.28;1.67;;;;;;;;;;4993726;28;20430;-45
2022/11/03 04:10:36;;;;;;;6.45;2.00;;;;;;;;;;4992887;28;20030;-45
2022/11/03 04:23:49;;;;;;;4.30;1.85;;;;;;;;;;4998114;28;20069;-46
2022/11/03 04:26:18;;;;;;;6.65;2.08;;;;;;;;;;4997297;28;20394;-47
2022/11/03 04:28:44;;;;;;;3.22;1.80;;;;;;;;;;4998839;28;20139;-47
2022/11/03 04:31:14;;;;;;;4.75;2.05;;;;;;;;;;4993356;28;20111;-45
2022/11/03 04:33:40;;;;;;;3.00;1.92;;;;;;;;;;4998517;28;20262;-49
2022/11/03 04:36:12;;;;;;;7.00;2.38;;;;;;;;;;4996792;28;20080;-45
2022/11/03 04:38:38;;;;;;;6.63;2.10;;;;;;;;;;4997508;28;20486;-47
2022/11/03 04:41:13;;;;;;;5.28;2.45;;;;;;;;;;4996646;28;20062;-45
2022/11/03 04:43:38;;;;;;;6.57;2.03;;;;;;;;;;4996197;28;20044;-47
2022/11/03 04:46:04;;;;;;;2.90;2.10;;;;;;;;;;4993582;28;20438;-46
2022/11/03 04:48:32;;;;;;;7.57;1.98;;;;;;;;;;4995695;28;20047;-46
2022/11/03 04:51:00;;;;;;;5.43;2.42;;;;;;;;;;4991894;28;20144;-46
2022/11/03 04:53:30;;;;;;;5.75;2.20;;;;;;;;;;4995642;28;20070;-49
2022/11/03 04:55:56;;;;;;;4.30;1.90;;;;;;;;;;4993852;28;20100;-47
2022/11/03 04:58:23;;;;;;;5.20;1.92;;;;;;;;;;4998322;28;20041;-45
2022/11/03 05:00:51;;;;;;;4.40;2.35;;;;;;;;;;4992559;28;20062;-46
2022/11/03 05:03:22;;;;;;;4.75;2.05;;;;;;;;;;4990005;28;20038;-45
2022/11/03 05:05:48;;;;;;;4.00;2.10;;;;;;;;;;4988901;28;20030;-51
2022/11/03 05:08:17;;;;;;;5.38;2.00;;;;;;;;;;4992117;28;20467;-45
2022/11/03 05:10:43;;;;;;;3.80;1.77;;;;;;;;;;4995013;28;21752;-46
2022/11/03 05:13:21;;;;;;;6.13;1.83;;;;;;;;;;4995281;28;20051;-45
2022/11/03 05:15:50;;;;;;;4.88;2.03;;;;;;;;;;4996707;28;20071;-44
2022/11/03 05:18:30;;;;;;;4.55;1.80;;;;;;;;;;4991447;28;20046;-44
2022/11/03 05:21:16;;;;;;;6.45;1.73;;;;;;;;;;4985353;28;20429;-44
2022/11/03 05:23:51;;;;;;;2.55;1.85;;;;;;;;;;4986788;28;20096;-45
2022/11/03 05:26:22;;;;;;;4.13;2.00;;;;;;;;;;4988759;28;20034;-45
2022/11/03 05:28:58;;;;;;;5.00;2.08;;;;;;;;;;4990067;28;20030;-46
2022/11/03 05:31:28;;;;;;;7.93;2.53;;;;;;;;;;4988477;28;20033;-44
2022/11/03 05:34:25;;;;;;;5.47;2.33;;;;;;;;;;4989938;28;20494;-44
2022/11/03 05:36:50;;;;;;;4.80;2.05;;;;;;;;;;4992163;28;20410;-45
2022/11/03 05:39:27;;;;;;;3.70;2.00;;;;;;;;;;4983620;28;20031;-44
2022/11/03 05:41:54;;;;;;;5.35;2.33;;;;;;;;;;4992526;28;20075;-45
2022/11/03 05:44:33;;;;;;;5.63;2.20;;;;;;;;;;4991597;28;20174;-45
2022/11/03 05:46:59;;;;;;;12.20;2.30;;;;;;;;;;4995637;28;20089;-45
2022/11/03 05:49:26;;;;;;;4.10;2.33;;;;;;;;;;4996875;28;20038;-45
2022/11/03 05:51:51;;;;;;;9.50;2.65;;;;;;;;;;4988718;28;20030;-46
2022/11/03 05:54:30;;;;;;;5.50;2.10;;;;;;;;;;4986880;28;20240;-45
2022/11/03 05:56:56;;;;;;;3.33;2.25;;;;;;;;;;4992734;28;20030;-45
2022/11/03 05:59:27;;;;;;;4.13;2.00;;;;;;;;;;4998396;28;20056;-45
2022/11/03 06:01:54;;;;;;;6.43;1.88;;;;;;;;;;4993584;28;20082;-48
2022/11/03 06:04:31;;;;;;;5.00;2.90;;;;;;;;;;4986980;28;20089;-51
2022/11/03 06:07:03;;;;;;;4.65;2.22;;;;;;;;;;4996196;28;20055;-49
2022/11/03 06:09:30;;;;;;;6.88;2.28;;;;;;;;;;4990389;28;20046;-49
2022/11/03 06:11:58;;;;;;;3.53;2.10;;;;;;;;;;4993006;28;20029;-46
2022/11/03 06:14:27;;;;;;;3.92;2.13;;;;;;;;;;4990345;28;20069;-45
2022/11/03 06:16:58;;;;;;;6.15;2.55;;;;;;;;;;4987341;28;20028;-46
2022/11/03 06:19:30;;;;;;;6.57;2.08;;;;;;;;;;4979333;28;20034;-49
2022/11/03 06:22:04;;;;;;;6.72;2.40;;;;;;;;;;4986623;28;20053;-49
2022/11/03 06:24:32;;;;;;;6.13;2.65;;;;;;;;;;4990117;28;20124;-47
2022/11/03 06:26:57;;;;;;;5.85;2.85;;;;;;;;;;4992123;28;20066;-50
2022/11/03 06:29:23;;;;;;;8.38;2.58;;;;;;;;;;4989892;28;20087;-47
2022/11/03 06:31:51;;;;;;;6.82;2.60;;;;;;;;;;4992299;28;20045;-51
2022/11/03 06:34:38;;;;;;;3.85;2.63;;;;;;;;;;4988403;28;20550;-50
2022/11/03 06:37:19;;;;;;;8.10;2.47;;;;;;;;;;4988225;28;20474;-49
2022/11/03 06:39:45;;;;;;;9.90;2.83;;;;;;;;;;4985996;28;20427;-46
2022/11/03 06:42:12;;;;;;;5.57;2.63;;;;;;;;;;4976925;28;20036;-50
2022/11/03 06:44:47;;;;;;;7.07;2.42;;;;;;;;;;4979253;28;20045;-45
2022/11/03 06:47:25;;;;;;;7.35;2.60;;;;;;;;;;4993049;28;20088;-51
2022/11/03 06:49:54;;;;;;;9.43;2.38;;;;;;;;;;4990598;28;20049;-45
2022/11/03 06:52:42;;;;;;;8.30;2.72;;;;;;;;;;4994874;28;20029;-49
2022/11/03 06:55:08;;;;;;;6.07;3.00;;;;;;;;;;4994676;28;20108;-50
2022/11/03 06:57:37;;;;;;;6.90;2.50;;;;;;;;;;4983064;28;20483;-50
2022/11/03 07:00:19;;;;;;;5.72;2.53;;;;;;;;;;4981965;28;20034;-50
2022/11/03 07:02:59;;;;;;;6.60;2.60;;;;;;;;;;4985213;28;20034;-49
2022/11/03 07:05:27;;;;;;;7.95;2.63;;;;;;;;;;4992231;28;20049;-45
2022/11/03 07:08:17;;;;;;;6.10;3.08;;;;;;;;;;4985041;28;20070;-46
2022/11/03 07:10:43;;;;;;;6.07;2.65;;;;;;;;;;4992196;28;20050;-44
2022/11/03 07:13:22;;;;;;;5.55;2.58;;;;;;;;;;4991023;28;20047;-45
2022/11/03 07:15:47;;;;;;;4.50;2.35;;;;;;;;;;4996784;28;20515;-45
2022/11/03 07:18:23;;;;;;;9.00;2.97;;;;;;;;;;4995263;28;20038;-48
2022/11/03 07:20:51;;;;;;;5.20;2.17;;;;;;;;;;4995051;28;20124;-45
2022/11/03 07:23:21;;;;;;;4.25;2.90;;;;;;;;;;4991751;28;20043;-45
2022/11/03 07:25:53;;;;;;;6.00;2.58;;;;;;;;;;4996275;28;20030;-45
2022/11/03 07:28:19;;;;;;;9.55;3.22;;;;;;;;;;4991568;28;20092;-47
2022/11/03 07:30:45;;;;;;;4.65;2.40;;;;;;;;;;4996037;28;20022;-45
2022/11/03 07:33:23;;;;;;;4.43;2.45;;;;;;;;;;4992210;28;20049;-48
2022/11/03 07:35:49;;;;;;;5.97;2.55;;;;;;;;;;4993580;28;20088;-47
2022/11/03 07:38:18;;;;;;;5.57;2.75;;;;;;;;;;4989550;28;20069;-46
2022/11/03 07:40:44;;;;;;;9.57;2.50;;;;;;;;;;4994273;28;20030;-45
2022/11/03 07:43:24;;;;;;;9.60;2.90;;;;;;;;;;4995953;28;20042;-44
2022/11/03 07:45:54;;;;;;;7.13;2.67;;;;;;;;;;4989095;28;20038;-46
2022/11/03 07:48:38;;;;;;;6.35;2.80;;;;;;;;;;4991534;28;20054;-47
2022/11/03 07:51:39;;;;;;;4.22;2.67;;;;;;;;;;4995584;28;20395;-47
2022/11/03 07:54:13;;;;;;;9.57;3.13;;;;;;;;;;4994568;28;20053;-47
2022/11/03 07:56:44;;;;;;;8.60;2.72;;;;;;;;;;4995604;28;20057;-48
2022/11/03 07:59:15;;;;;;;5.60;2.85;;;;;;;;;;4994927;28;20038;-44
2022/11/03 08:01:48;;;;;;;4.60;2.90;;;;;;;;;;5000665;28;20030;-48
2022/11/03 08:04:23;;;;;;;4.05;2.33;;;;;;;;;;4999500;28;20522;-45
2022/11/03 08:06:50;;;;;;;9.15;3.25;;;;;;;;;;4986441;28;20114;-46
2022/11/03 08:09:15;;;;;;;6.85;2.67;;;;;;;;;;5000593;28;20044;-47
2022/11/03 08:11:40;;;;;;;2.97;2.38;;;;;;;;;;4998069;28;20022;-48
2022/11/03 08:14:06;;;;;;;5.82;2.67;;;;;;;;;;4993941;28;20564;-47
2022/11/03 08:16:31;;;;;;;6.68;2.75;;;;;;;;;;4994338;28;20024;-46
2022/11/03 08:18:57;;;;;;;6.05;2.65;;;;;;;;;;4999261;28;20125;-46
2022/11/03 08:21:22;;;;;;;5.10;2.58;;;;;;;;;;4992984;28;20043;-48
2022/11/03 08:23:47;;;;;;;7.43;3.17;;;;;;;;;;4997520;28;20050;-46
2022/11/03 08:26:14;;;;;;;5.85;2.58;;;;;;;;;;4998352;28;20037;-45
2022/11/03 08:28:39;;;;;;;8.85;2.38;;;;;;;;;;4999698;28;20048;-45
2022/11/03 08:31:04;;;;;;;2.95;2.60;;;;;;;;;;4992769;28;20033;-47
2022/11/03 08:33:31;;;;;;;5.82;2.78;;;;;;;;;;4996719;28;20090;-46
2022/11/03 08:35:57;;;;;;;6.97;2.80;;;;;;;;;;4998829;28;20021;-45
2022/11/03 08:38:23;;;;;;;5.45;3.13;;;;;;;;;;4996494;28;20100;-45
2022/11/03 08:40:48;;;;;;;6.30;2.58;;;;;;;;;;4993786;28;20065;-50
2022/11/03 08:43:13;;;;;;;4.82;2.90;;;;;;;;;;4995912;28;20035;-48
2022/11/03 08:45:39;;;;;;;5.97;2.67;;;;;;;;;;5002433;28;20049;-45
2022/11/03 08:48:04;;;;;;;6.25;2.92;;;;;;;;;;4993515;28;20507;-48
2022/11/03 08:50:30;;;;;;;5.63;3.00;;;;;;;;;;4995989;28;20122;-48
2022/11/03 08:52:55;;;;;;;6.72;2.83;;;;;;;;;;4996330;28;20081;-47
2022/11/03 08:55:20;;;;;;;4.85;2.85;;;;;;;;;;4992447;28;20490;-48
2022/11/03 08:57:46;;;;;;;6.22;2.45;;;;;;;;;;4997327;28;22730;-44
2022/11/03 09:00:12;;;;;;;5.65;2.75;;;;;;;;;;4998819;28;20042;-45
2022/11/03 09:02:38;;;;;;;7.93;3.05;;;;;;;;;;4996234;28;20092;-49
2022/11/03 09:05:04;;;;;;;8.20;2.72;;;;;;;;;;4993039;28;20753;-46
2022/11/03 09:07:30;;;;;;;5.35;2.80;;;;;;;;;;4996652;28;20540;-48
2022/11/03 09:09:55;;;;;;;3.28;2.42;;;;;;;;;;4998483;28;20046;-46
2022/11/03 09:12:20;;;;;;;2.78;2.28;;;;;;;;;;4995925;28;20049;-48
2022/11/03 09:14:46;;;;;;;2.83;2.17;;;;;;;;;;4995627;28;20037;-49
2022/11/03 09:17:11;;;;;;;4.45;2.50;;;;;;;;;;4999441;28;20057;-49
2022/11/03 09:19:37;;;;;;;5.53;2.60;;;;;;;;;;4993655;28;20034;-45
2022/11/03 09:22:02;;;;;;;6.05;2.35;;;;;;;;;;4993994;28;20050;-48
2022/11/03 09:24:29;;;;;;;4.82;2.40;;;;;;;;;;4993482;28;20461;-47
2022/11/03 09:26:54;;;;;;;2.67;1.98;;;;;;;;;;4988673;28;20031;-46
2022/11/03 09:29:20;;;;;;;3.65;1.95;;;;;;;;;;4998142;28;20039;-50
2022/11/03 09:31:45;;;;;;;2.28;2.05;;;;;;;;;;4987769;28;20032;-45
2022/11/03 09:34:10;;;;;;;4.60;2.20;;;;;;;;;;4998137;28;20057;-48
2022/11/03 09:36:36;;;;;;;4.40;2.53;;;;;;;;;;4996642;28;20506;-46
2022/11/03 09:39:01;;;;;;;4.28;2.30;;;;;;;;;;4994189;28;20038;-46
2022/11/03 09:41:27;;;;;;;4.07;2.53;;;;;;;;;;4999371;28;20033;-46
2022/11/03 09:43:53;;;;;;;7.65;2.13;;;;;;;;;;4991075;28;20042;-45
2022/11/03 09:46:19;;;;;;;7.78;2.72;;;;;;;;;;4998315;28;20030;-50
2022/11/03 09:48:44;;;;;;;4.88;2.35;;;;;;;;;;4995520;28;20392;-47
2022/11/03 09:51:16;;;;;;;3.63;2.58;;;;;;;;;;4996145;28;20054;-48
2022/11/03 09:53:41;;;;;;;3.45;2.33;;;;;;;;;;4990876;28;20154;-50
2022/11/03 09:56:09;;;;;;;5.95;2.60;;;;;;;;;;4994286;28;20566;-45
2022/11/03 09:58:35;;;;;;;6.53;2.20;;;;;;;;;;4992088;28;20518;-48
2022/11/03 10:01:01;;;;;;;8.98;2.42;;;;;;;;;;4995795;28;20426;-49
2022/11/03 10:03:27;;;;;;;9.05;3.00;;;;;;;;;;4994954;28;20046;-52
2022/11/03 10:05:53;;;;;;;4.30;1.90;;;;;;;;;;4989690;28;20483;-49
2022/11/03 10:08:30;;;;;;;7.05;2.38;;;;;;;;;;5006745;28;20045;-46
2022/11/03 10:10:57;;;;;;;4.07;2.33;;;;;;;;;;4993829;28;20022;-45
2022/11/03 10:13:30;;;;;;;6.88;2.17;;;;;;;;;;4996158;28;20143;-45
2022/11/03 10:16:00;;;;;;;10.00;2.92;;;;;;;;;;4995645;28;20045;-51
2022/11/03 10:18:27;;;;;;;5.43;2.55;;;;;;;;;;4994911;28;20590;-48
2022/11/03 10:20:52;;;;;;;5.75;2.45;;;;;;;;;;4992150;28;20530;-49
2022/11/03 10:23:18;;;;;;;7.28;3.25;;;;;;;;;;4997934;28;20042;-52
2022/11/03 10:25:44;;;;;;;11.75;3.03;;;;;;;;;;4991503;28;20022;-49
2022/11/03 10:28:11;;;;;;;6.28;2.60;;;;;;;;;;4994520;28;20053;-45
2022/11/03 10:30:49;;;;;;;11.63;2.70;;;;;;;;;;4996325;28;20080;-44
2022/11/03 10:33:34;;;;;;;8.70;3.55;;;;;;;;;;4995208;28;20066;-45
2022/11/03 10:36:02;;;;;;;11.43;3.00;;;;;;;;;;4993744;28;20046;-46
2022/11/03 10:38:33;;;;;;;8.98;2.78;;;;;;;;;;4991794;28;20033;-45
2022/11/03 10:41:19;;;;;;;13.02;3.25;;;;;;;;;;4997420;28;20073;-47
2022/11/03 10:44:15;;;;;;;14.73;2.92;;;;;;;;;;4992744;28;20061;-46
2022/11/03 10:47:01;;;;;;;3.95;2.53;;;;;;;;;;4993417;28;20034;-48
2022/11/03 10:49:31;;;;;;;6.38;2.38;;;;;;;;;;4991923;28;20041;-46
2022/11/03 10:52:16;;;;;;;10.07;2.30;;;;;;;;;;4991182;28;20034;-49
2022/11/03 10:54:41;;;;;;;6.47;2.85;;;;;;;;;;4988476;28;20096;-46
2022/11/03 10:57:07;;;;;;;8.45;2.85;;;;;;;;;;4990045;28;20038;-46
2022/11/03 10:59:36;;;;;;;13.57;3.60;;;;;;;;;;4994078;28;20065;-44
2022/11/03 11:02:07;;;;;;;5.63;2.67;;;;;;;;;;4996624;28;20108;-46
2022/11/03 11:04:33;;;;;;;7.72;3.03;;;;;;;;;;4995526;28;20053;-44
2022/11/03 11:06:58;;;;;;;3.97;2.53;;;;;;;;;;4992721;28;20037;-44
2022/11/03 11:09:26;;;;;;;5.82;2.90;;;;;;;;;;4994318;28;20042;-46
2022/11/03 11:12:21;;;;;;;3.80;2.40;;;;;;;;;;4997349;28;20077;-46
2022/11/03 11:14:57;;;;;;;14.38;2.83;;;;;;;;;;4990778;28;20042;-44
2022/11/03 11:17:44;;;;;;;7.95;2.75;;;;;;;;;;4997509;28;20026;-45
2022/11/03 11:20:32;;;;;;;6.82;3.25;;;;;;;;;;4992463;28;20081;-43
2022/11/03 11:23:28;;;;;;;7.32;3.05;;;;;;;;;;4988988;28;20038;-46
2022/11/03 11:26:09;;;;;;;9.85;3.03;;;;;;;;;;4995400;28;20089;-45
2022/11/03 11:28:39;;;;;;;7.10;3.22;;;;;;;;;;4994272;28;20057;-45
2022/11/03 11:31:44;;;;;;;7.03;3.00;;;;;;;;;;4998371;28;20037;-44
2022/11/03 11:34:09;;;;;;;6.75;3.20;;;;;;;;;;4954837;28;20058;-46
2022/11/03 11:36:36;;;;;;;8.63;3.42;;;;;;;;;;4958207;28;20041;-47
2022/11/03 11:39:04;;;;;;;8.77;3.50;;;;;;;;;;4958009;28;20058;-47
2022/11/03 11:42:06;;;;;;;9.68;3.80;;;;;;;;;;4957902;28;20086;-47
2022/11/03 11:44:53;;;;;;;5.78;3.50;;;;;;;;;;4953011;28;20038;-45
2022/11/03 11:47:40;;;;;;;5.65;3.45;;;;;;;;;;4954497;28;20031;-48
2022/11/03 11:50:05;;;;;;;9.80;4.85;;;;;;;;;;4959233;28;20145;-44
2022/11/03 11:53:08;;;;;;;7.30;3.80;;;;;;;;;;4957186;28;20081;-45
2022/11/03 11:55:40;;;;;;;5.22;2.78;;;;;;;;;;4899431;29;22462;-44
2022/11/03 11:58:15;;;;;;;6.10;3.63;;;;;;;;;;4902405;29;20099;-43
2022/11/03 12:00:53;;;;;;;8.70;3.30;;;;;;;;;;4897325;29;20040;-44
2022/11/03 12:03:24;;;;;;;10.73;4.10;;;;;;;;;;4892670;29;20040;-45
2022/11/03 12:05:50;;;;;;;13.77;4.43;;;;;;;;;;4903561;29;20044;-44
2022/11/03 12:08:20;;;;;;;13.15;4.25;;;;;;;;;;4900825;29;20491;-44
2022/11/03 12:10:53;;;;;;;51.00;6.05;;;;;;;;;;4934166;29;20044;-61
2022/11/03 12:13:46;;;;;;;17.35;5.70;;;;;;;;;;4930368;28;20052;-46
2022/11/03 12:16:50;;;;;;;9.80;5.35;;;;;;;;;;4937277;29;20607;-45
2022/11/03 12:19:35;;;;;;;8.40;5.10;;;;;;;;;;4861989;29;20064;-45
2022/11/03 12:22:02;;;;;;;13.30;5.40;;;;;;;;;;4862942;29;20590;-44
2022/11/03 12:24:31;;;;;;;16.67;6.75;;;;;;;;;;4862086;29;20050;-45
2022/11/03 12:26:57;;;;;;;9.93;5.13;;;;;;;;;;4866199;29;20177;-44
2022/11/03 12:29:23;;;;;;;18.30;6.07;;;;;;;;;;4860885;29;20399;-45
2022/11/03 12:31:48;;;;;;;12.93;6.00;;;;;;;;;;4883103;29;20035;-45
2022/11/03 12:34:13;;;;;;;8.82;5.30;;;;;;;;;;4933630;28;20196;-46
2022/11/03 12:36:39;;;;;;;12.55;5.32;;;;;;;;;;4937829;29;20114;-47
2022/11/03 12:39:04;;;;;;;10.82;5.75;;;;;;;;;;4936559;28;20468;-45
2022/11/03 12:41:30;;;;;;;11.23;4.95;;;;;;;;;;4940198;29;20043;-47
2022/11/03 12:43:55;;;;;;;19.10;5.88;;;;;;;;;;4938115;28;20050;-45
2022/11/03 12:46:21;;;;;;;17.05;6.53;;;;;;;;;;4936360;29;20137;-46
2022/11/03 12:48:47;;;;;;;20.90;6.10;;;;;;;;;;4940249;29;20043;-45
2022/11/03 12:51:15;;;;;;;13.50;6.35;;;;;;;;;;4999112;28;20041;-44
2022/11/03 12:53:40;;;;;;;14.57;5.93;;;;;;;;;;4999804;28;20125;-45
2022/11/03 12:56:07;;;;;;;11.68;5.50;;;;;;;;;;4998897;28;20120;-45
2022/11/03 12:58:33;;;;;;;9.43;5.38;;;;;;;;;;4996941;28;20056;-45
2022/11/03 13:00:59;;;;;;;10.38;4.93;;;;;;;;;;4992139;28;20026;-47
2022/11/03 13:03:24;;;;;;;10.07;5.00;;;;;;;;;;4997303;28;20038;-45
2022/11/03 13:05:50;;;;;;;10.82;5.53;;;;;;;;;;4996552;28;20043;-45
2022/11/03 13:08:15;;;;;;;15.57;5.03;;;;;;;;;;5001574;28;20067;-45
2022/11/03 13:10:40;;;;;;;9.05;4.53;;;;;;;;;;4991857;28;20018;-45
2022/11/03 13:13:06;;;;;;;15.10;5.00;;;;;;;;;;4997685;28;20089;-45
2022/11/03 13:15:31;;;;;;;10.07;5.10;;;;;;;;;;4998389;28;20945;-45
2022/11/03 13:17:56;;;;;;;13.60;5.18;;;;;;;;;;4994742;28;20061;-47
2022/11/03 13:20:22;;;;;;;10.43;5.25;;;;;;;;;;4993110;28;20034;-45
2022/11/03 13:22:47;;;;;;;10.00;5.93;;;;;;;;;;4995981;28;20568;-47
2022/11/03 13:25:13;;;;;;;16.73;5.50;;;;;;;;;;4998745;28;20523;-46
2022/11/03 13:27:38;;;;;;;10.75;5.40;;;;;;;;;;4990746;28;20042;-45
2022/11/03 13:30:06;;;;;;;6.82;5.20;;;;;;;;;;4995415;28;20034;-45
2022/11/03 13:32:31;;;;;;;13.52;5.28;;;;;;;;;;4997193;28;20141;-45
2022/11/03 13:34:56;;;;;;;7.95;4.65;;;;;;;;;;4992514;28;20043;-45
2022/11/03 13:37:22;;;;;;;9.38;5.10;;;;;;;;;;4995534;28;20032;-45
2022/11/03 13:39:47;;;;;;;13.25;5.47;;;;;;;;;;4996209;28;21431;-45
2022/11/03 13:42:12;;;;;;;21.40;6.75;;;;;;;;;;4989437;28;20518;-45
2022/11/03 13:44:38;;;;;;;12.23;5.38;;;;;;;;;;4991599;28;20030;-45
2022/11/03 13:47:04;;;;;;;20.48;5.88;;;;;;;;;;4995729;28;20505;-45
2022/11/03 13:49:29;;;;;;;16.65;6.45;;;;;;;;;;4992897;28;20042;-48
2022/11/03 13:51:54;;;;;;;19.85;5.97;;;;;;;;;;4997995;28;20026;-45
2022/11/03 13:54:20;;;;;;;13.25;5.35;;;;;;;;;;4996430;28;20092;-45
2022/11/03 13:56:45;;;;;;;15.60;5.65;;;;;;;;;;4997956;28;20028;-48
2022/11/03 13:59:11;;;;;;;18.85;6.72;;;;;;;;;;4993673;28;20100;-45
2022/11/03 14:01:37;;;;;;;17.42;6.93;;;;;;;;;;4989051;28;20045;-47
2022/11/03 14:04:02;;;;;;;27.95;7.68;;;;;;;;;;4995350;28;20046;-46
2022/11/03 14:06:28;;;;;;;21.90;8.40;;;;;;;;;;4993632;28;20040;-45
2022/11/03 14:08:53;;;;;;;25.83;8.77;;;;;;;;;;4995108;28;20091;-46
2022/11/03 14:14:03;;;;;;;27.05;10.23;;;;;;;;;;4994800;28;20048;-47
2022/11/03 14:16:28;;;;;;;31.23;10.50;;;;;;;;;;4992325;28;20188;-48
2022/11/03 14:18:53;;;;;;;29.15;11.63;;;;;;;;;;4989267;28;20078;-45
2022/11/03 14:21:19;;;;;;;36.00;12.63;;;;;;;;;;4996830;28;20053;-50
2022/11/03 14:23:44;;;;;;;35.38;12.38;;;;;;;;;;4992195;28;20054;-46
2022/11/03 14:26:09;;;;;;;32.88;12.85;;;;;;;;;;4998256;28;20029;-47
2022/11/03 14:28:35;;;;;;;33.55;13.02;;;;;;;;;;5003591;28;20042;-46
2022/11/03 14:31:02;;;;;;;42.10;12.88;;;;;;;;;;4992733;28;20019;-47
2022/11/03 14:33:27;;;;;;;37.15;14.52;;;;;;;;;;4992763;28;20046;-45
2022/11/03 14:35:53;;;;;;;45.20;15.60;;;;;;;;;;4990433;28;20371;-47
2022/11/03 14:38:18;;;;;;;155.40;86.03;;;;;;;;;;4995064;28;20045;-48
2022/11/03 14:43:27;;;;;;;40.40;16.65;;;;;;;;;;4996031;28;20092;-47
2022/11/03 14:45:53;;;;;;;58.13;17.20;;;;;;;;;;4992280;28;20027;-46
2022/11/03 14:48:18;;;;;;;44.17;16.27;;;;;;;;;;4994202;28;20704;-46
2022/11/03 14:50:43;;;;;;;43.55;15.75;;;;;;;;;;4989296;28;20028;-47
2022/11/03 14:53:09;;;;;;;45.65;16.48;;;;;;;;;;4990819;28;20057;-47
2022/11/03 14:55:34;;;;;;;48.30;16.52;;;;;;;;;;4995849;28;20402;-49
2022/11/03 14:58:00;;;;;;;40.83;16.30;;;;;;;;;;4996563;28;20064;-47
2022/11/03 15:00:25;;;;;;;43.80;17.83;;;;;;;;;;4992237;28;20022;-46
2022/11/03 15:02:51;;;;;;;63.67;21.10;;;;;;;;;;4997464;28;20084;-49
2022/11/03 15:08:00;;;;;;;57.40;18.38;;;;;;;;;;4993244;28;20125;-48
2022/11/03 15:10:25;;;;;;;53.35;19.13;;;;;;;;;;4995456;28;20105;-48
2022/11/03 15:12:51;;;;;;;41.03;17.45;;;;;;;;;;4991757;28;20138;-49
2022/11/03 15:15:16;;;;;;;49.60;17.98;;;;;;;;;;4999728;28;20027;-49
2022/11/03 15:17:41;;;;;;;48.05;18.05;;;;;;;;;;4998855;28;20026;-49
2022/11/03 15:20:07;;;;;;;49.85;18.67;;;;;;;;;;4994364;28;20031;-45